sensor_id;sensor_type;location;lat;lon;timestamp;pressure;altitude;pressure_sealevel;temperature;humidity
44001;BME280;29660;42.892;24.710;2023-04-26T00:04:56;96020.66;;;9.81;100.00
44001;BME280;29660;42.892;24.710;2023-04-26T00:10:19;95964.63;;;9.32;100.00
44001;BME280;29660;42.892;24.710;2023-04-26T00:15:42;95985.84;;;9.46;100.00
44001;BME280;29660;42.892;24.710;2023-04-26T00:21:04;96053.56;;;9.85;100.00
44001;BME280;29660;42.892;24.710;2023-04-26T00:26:26;95999.28;;;9.41;100.00
44001;BME280;29660;42.892;24.710;2023-04-26T00:31:48;96005.00;;;9.34;100.00
44001;BME280;29660;42.892;24.710;2023-04-26T00:37:11;95780.28;;;7.88;100.00
44001;BME280;29660;42.892;24.710;2023-04-26T00:42:33;96022.72;;;9.39;100.00
44001;BME280;29660;42.892;24.710;2023-04-26T00:47:57;96020.69;;;9.36;100.00
44001;BME280;29660;42.892;24.710;2023-04-26T00:53:19;95992.13;;;9.05;100.00
44001;BME280;29660;42.892;24.710;2023-04-26T00:58:41;96069.84;;;9.39;100.00
44001;BME280;29660;42.892;24.710;2023-04-26T01:04:03;96045.09;;;9.38;100.00
44001;BME280;29660;42.892;24.710;2023-04-26T01:09:27;96030.97;;;9.29;100.00
44001;BME280;29660;42.892;24.710;2023-04-26T01:14:53;95988.66;;;8.82;100.00
44001;BME280;29660;42.892;24.710;2023-04-26T01:20:16;95816.50;;;7.71;100.00
44001;BME280;29660;42.892;24.710;2023-04-26T01:25:38;96026.44;;;8.93;100.00
44001;BME280;29660;42.892;24.710;2023-04-26T01:31:00;95977.09;;;8.65;100.00
44001;BME280;29660;42.892;24.710;2023-04-26T01:36:25;95762.50;;;7.11;100.00
44001;BME280;29660;42.892;24.710;2023-04-26T01:41:47;95850.09;;;7.75;100.00
44001;BME280;29660;42.892;24.710;2023-04-26T01:47:09;95604.03;;;5.98;100.00
44001;BME280;29660;42.892;24.710;2023-04-26T01:52:31;95975.22;;;8.24;100.00
44001;BME280;29660;42.892;24.710;2023-04-26T01:57:55;96005.06;;;8.48;100.00
44001;BME280;29660;42.892;24.710;2023-04-26T02:03:17;95870.34;;;7.57;100.00
44001;BME280;29660;42.892;24.710;2023-04-26T02:08:39;95935.22;;;8.06;100.00
44001;BME280;29660;42.892;24.710;2023-04-26T02:14:01;95923.63;;;7.88;100.00
44001;BME280;29660;42.892;24.710;2023-04-26T02:19:23;95785.03;;;6.95;100.00
44001;BME280;29660;42.892;24.710;2023-04-26T02:24:45;95988.25;;;8.25;100.00
44001;BME280;29660;42.892;24.710;2023-04-26T02:30:08;95954.59;;;7.93;100.00
44001;BME280;29660;42.892;24.710;2023-04-26T02:35:30;95707.81;;;6.28;100.00
44001;BME280;29660;42.892;24.710;2023-04-26T02:41:02;95947.00;;;7.73;100.00
44001;BME280;29660;42.892;24.710;2023-04-26T02:46:25;95951.53;;;7.58;100.00
44001;BME280;29660;42.892;24.710;2023-04-26T02:51:48;95948.38;;;7.56;100.00
44001;BME280;29660;42.892;24.710;2023-04-26T02:57:10;95747.34;;;6.05;100.00
44001;BME280;29660;42.892;24.710;2023-04-26T03:02:32;95950.09;;;7.33;100.00
44001;BME280;29660;42.892;24.710;2023-04-26T03:07:54;95780.59;;;6.11;100.00
44001;BME280;29660;42.892;24.710;2023-04-26T03:13:17;95761.84;;;5.89;100.00
44001;BME280;29660;42.892;24.710;2023-04-26T03:18:39;95798.25;;;5.97;100.00
44001;BME280;29660;42.892;24.710;2023-04-26T03:24:03;96003.50;;;7.27;100.00
44001;BME280;29660;42.892;24.710;2023-04-26T03:29:26;95753.38;;;5.49;100.00
44001;BME280;29660;42.892;24.710;2023-04-26T03:34:49;95778.69;;;5.55;100.00
44001;BME280;29660;42.892;24.710;2023-04-26T03:40:11;95760.47;;;5.35;100.00
44001;BME280;29660;42.892;24.710;2023-04-26T03:45:34;95988.28;;;6.81;100.00
44001;BME280;29660;42.892;24.710;2023-04-26T03:50:57;95798.16;;;5.64;100.00
44001;BME280;29660;42.892;24.710;2023-04-26T03:56:19;95792.19;;;5.54;100.00
44001;BME280;29660;42.892;24.710;2023-04-26T04:01:43;96054.81;;;7.36;100.00
44001;BME280;29660;42.892;24.710;2023-04-26T04:07:05;96017.84;;;7.26;100.00
44001;BME280;29660;42.892;24.710;2023-04-26T04:12:28;96010.53;;;7.36;100.00
44001;BME280;29660;42.892;24.710;2023-04-26T04:17:50;96030.72;;;7.65;100.00
44001;BME280;29660;42.892;24.710;2023-04-26T04:23:13;95799.13;;;6.63;100.00
44001;BME280;29660;42.892;24.710;2023-04-26T04:28:36;95859.50;;;7.12;100.00
44001;BME280;29660;42.892;24.710;2023-04-26T04:33:59;95756.31;;;6.56;100.00
44001;BME280;29660;42.892;24.710;2023-04-26T04:39:21;95769.34;;;6.52;100.00
44001;BME280;29660;42.892;24.710;2023-04-26T04:44:44;95941.63;;;7.92;100.00
44001;BME280;29660;42.892;24.710;2023-04-26T04:50:08;95793.81;;;7.51;100.00
44001;BME280;29660;42.892;24.710;2023-04-26T04:55:31;96042.22;;;9.48;100.00
44001;BME280;29660;42.892;24.710;2023-04-26T05:00:54;95899.53;;;8.63;100.00
44001;BME280;29660;42.892;24.710;2023-04-26T05:06:26;95930.66;;;9.07;100.00
44001;BME280;29660;42.892;24.710;2023-04-26T05:11:48;96008.50;;;9.97;100.00
44001;BME280;29660;42.892;24.710;2023-04-26T05:17:11;95801.06;;;8.68;100.00
44001;BME280;29660;42.892;24.710;2023-04-26T05:22:33;96042.72;;;10.35;100.00
44001;BME280;29660;42.892;24.710;2023-04-26T05:27:58;95800.53;;;8.88;100.00
44001;BME280;29660;42.892;24.710;2023-04-26T05:33:52;95949.94;;;10.06;100.00
44001;BME280;29660;42.892;24.710;2023-04-26T05:39:28;95817.53;;;9.41;100.00
44001;BME280;29660;42.892;24.710;2023-04-26T05:44:56;95992.44;;;10.68;100.00
44001;BME280;29660;42.892;24.710;2023-04-26T05:50:18;96025.91;;;11.35;100.00
44001;BME280;29660;42.892;24.710;2023-04-26T05:55:41;95748.88;;;9.69;100.00
44001;BME280;29660;42.892;24.710;2023-04-26T06:01:04;95996.78;;;11.77;100.00
44001;BME280;29660;42.892;24.710;2023-04-26T06:06:28;95944.47;;;11.76;100.00
44001;BME280;29660;42.892;24.710;2023-04-26T06:11:50;95750.16;;;10.49;100.00
44001;BME280;29660;42.892;24.710;2023-04-26T06:17:12;96022.81;;;12.44;100.00
44001;BME280;29660;42.892;24.710;2023-04-26T06:22:35;95978.28;;;12.19;100.00
44001;BME280;29660;42.892;24.710;2023-04-26T06:27:58;95973.34;;;12.59;95.34
44001;BME280;29660;42.892;24.710;2023-04-26T06:33:21;95831.22;;;11.68;92.77
44001;BME280;29660;42.892;24.710;2023-04-26T06:38:43;95968.47;;;12.82;87.33
44001;BME280;29660;42.892;24.710;2023-04-26T06:44:07;95923.59;;;12.67;86.81
44001;BME280;29660;42.892;24.710;2023-04-26T06:49:30;95765.44;;;11.64;84.30
44001;BME280;29660;42.892;24.710;2023-04-26T06:54:52;95741.69;;;11.41;75.04
44001;BME280;29660;42.892;24.710;2023-04-26T07:00:18;95984.28;;;13.38;68.36
44001;BME280;29660;42.892;24.710;2023-04-26T07:05:40;95931.47;;;13.26;70.37
44001;BME280;29660;42.892;24.710;2023-04-26T07:11:08;96010.00;;;13.84;71.58
44001;BME280;29660;42.892;24.710;2023-04-26T07:16:31;95939.06;;;13.15;68.20
44001;BME280;29660;42.892;24.710;2023-04-26T07:21:53;95979.91;;;13.66;67.96
44001;BME280;29660;42.892;24.710;2023-04-26T07:27:15;95757.69;;;12.55;70.87
44001;BME280;29660;42.892;24.710;2023-04-26T07:32:37;96008.03;;;14.18;67.34
44001;BME280;29660;42.892;24.710;2023-04-26T07:38:00;95959.75;;;14.18;67.11
44001;BME280;29660;42.892;24.710;2023-04-26T07:43:22;95751.25;;;13.01;60.19
44001;BME280;29660;42.892;24.710;2023-04-26T07:48:44;95726.38;;;13.13;60.95
44001;BME280;29660;42.892;24.710;2023-04-26T07:54:06;95768.13;;;13.38;63.29
44001;BME280;29660;42.892;24.710;2023-04-26T07:59:28;95824.16;;;14.05;61.86
44001;BME280;29660;42.892;24.710;2023-04-26T08:04:51;95766.53;;;13.86;59.13
44001;BME280;29660;42.892;24.710;2023-04-26T08:10:13;95998.81;;;15.05;60.60
44001;BME280;29660;42.892;24.710;2023-04-26T08:15:36;95783.25;;;14.20;57.52
44001;BME280;29660;42.892;24.710;2023-04-26T08:20:58;95779.00;;;14.07;57.82
44001;BME280;29660;42.892;24.710;2023-04-26T08:26:20;95917.22;;;14.81;56.78
44001;BME280;29660;42.892;24.710;2023-04-26T08:31:42;95798.69;;;13.86;59.51
44001;BME280;29660;42.892;24.710;2023-04-26T08:37:07;95965.50;;;15.06;57.96
44001;BME280;29660;42.892;24.710;2023-04-26T08:42:30;95993.00;;;15.43;55.29
44001;BME280;29660;42.892;24.710;2023-04-26T08:48:01;95968.53;;;15.32;56.94
44001;BME280;29660;42.892;24.710;2023-04-26T08:53:26;95822.75;;;14.35;52.97
44001;BME280;29660;42.892;24.710;2023-04-26T08:58:49;95785.09;;;13.79;54.13
44001;BME280;29660;42.892;24.710;2023-04-26T09:04:13;95824.59;;;14.19;53.59
44001;BME280;29660;42.892;24.710;2023-04-26T09:09:40;95761.41;;;13.93;51.85
44001;BME280;29660;42.892;24.710;2023-04-26T09:15:04;95768.91;;;13.88;51.13
44001;BME280;29660;42.892;24.710;2023-04-26T09:20:29;95932.34;;;15.14;48.64
44001;BME280;29660;42.892;24.710;2023-04-26T09:25:52;95962.31;;;15.16;47.48
44001;BME280;29660;42.892;24.710;2023-04-26T09:31:37;95864.31;;;14.41;47.09
44001;BME280;29660;42.892;24.710;2023-04-26T09:36:59;95814.13;;;14.42;49.90
44001;BME280;29660;42.892;24.710;2023-04-26T09:42:22;95780.38;;;14.00;47.17
44001;BME280;29660;42.892;24.710;2023-04-26T09:47:44;96037.22;;;15.45;43.43
44001;BME280;29660;42.892;24.710;2023-04-26T09:53:06;95807.06;;;13.97;45.81
44001;BME280;29660;42.892;24.710;2023-04-26T09:58:28;95985.97;;;15.10;44.89
44001;BME280;29660;42.892;24.710;2023-04-26T10:03:51;95983.84;;;15.04;42.63
44001;BME280;29660;42.892;24.710;2023-04-26T10:09:13;95811.91;;;13.91;41.71
44001;BME280;29660;42.892;24.710;2023-04-26T10:14:37;95863.78;;;14.23;42.40
44001;BME280;29660;42.892;24.710;2023-04-26T10:20:00;95912.59;;;14.66;43.41
44001;BME280;29660;42.892;24.710;2023-04-26T10:25:38;96028.75;;;15.87;43.77
44001;BME280;29660;42.892;24.710;2023-04-26T10:31:01;96013.00;;;16.02;42.49
44001;BME280;29660;42.892;24.710;2023-04-26T10:36:23;95884.22;;;15.21;41.81
44001;BME280;29660;42.892;24.710;2023-04-26T10:41:45;95946.22;;;15.88;39.82
44001;BME280;29660;42.892;24.710;2023-04-26T10:47:41;96014.66;;;16.54;42.33
44001;BME280;29660;42.892;24.710;2023-04-26T10:58:31;96006.03;;;16.96;41.08
44001;BME280;29660;42.892;24.710;2023-04-26T11:09:36;95946.28;;;15.76;43.35
44001;BME280;29660;42.892;24.710;2023-04-26T11:15:00;96003.22;;;16.41;43.07
44001;BME280;29660;42.892;24.710;2023-04-26T11:20:27;95805.78;;;15.15;41.69
44001;BME280;29660;42.892;24.710;2023-04-26T11:25:50;95874.91;;;15.94;40.96
44001;BME280;29660;42.892;24.710;2023-04-26T11:31:12;95851.59;;;15.82;39.64
44001;BME280;29660;42.892;24.710;2023-04-26T11:36:37;95944.13;;;16.80;38.67
44001;BME280;29660;42.892;24.710;2023-04-26T11:42:06;96040.78;;;17.20;39.90
44001;BME280;29660;42.892;24.710;2023-04-26T11:47:29;96039.38;;;17.26;39.43
44001;BME280;29660;42.892;24.710;2023-04-26T11:52:55;96015.34;;;17.56;37.78
44001;BME280;29660;42.892;24.710;2023-04-26T11:58:19;95809.31;;;15.99;37.29
44001;BME280;29660;42.892;24.710;2023-04-26T12:03:41;95978.97;;;17.08;37.08
44001;BME280;29660;42.892;24.710;2023-04-26T12:09:03;95756.16;;;15.25;40.56
44001;BME280;29660;42.892;24.710;2023-04-26T12:14:34;95946.81;;;16.29;42.32
44001;BME280;29660;42.892;24.710;2023-04-26T12:19:56;95960.91;;;16.73;42.22
44001;BME280;29660;42.892;24.710;2023-04-26T12:25:19;95952.22;;;16.64;41.22
44001;BME280;29660;42.892;24.710;2023-04-26T12:30:41;96023.56;;;16.89;41.34
44001;BME280;29660;42.892;24.710;2023-04-26T12:36:10;95824.88;;;15.58;39.36
44001;BME280;29660;42.892;24.710;2023-04-26T12:41:32;95913.41;;;16.14;41.64
44001;BME280;29660;42.892;24.710;2023-04-26T12:46:54;95948.91;;;16.86;39.31
44001;BME280;29660;42.892;24.710;2023-04-26T12:52:16;95949.69;;;16.71;39.30
44001;BME280;29660;42.892;24.710;2023-04-26T12:57:39;96008.78;;;16.99;38.79
44001;BME280;29660;42.892;24.710;2023-04-26T13:03:03;96000.41;;;16.85;40.08
44001;BME280;29660;42.892;24.710;2023-04-26T13:08:25;95994.88;;;16.46;41.79
44001;BME280;29660;42.892;24.710;2023-04-26T13:13:47;95811.84;;;15.12;41.89
44001;BME280;29660;42.892;24.710;2023-04-26T13:19:10;95804.72;;;15.20;42.56
44001;BME280;29660;42.892;24.710;2023-04-26T13:24:33;95804.41;;;15.21;40.86
44001;BME280;29660;42.892;24.710;2023-04-26T13:29:56;95654.09;;;13.49;42.70
44001;BME280;29660;42.892;24.710;2023-04-26T13:35:18;96065.16;;;16.13;42.73
44001;BME280;29660;42.892;24.710;2023-04-26T13:40:40;95863.69;;;14.72;44.10
44001;BME280;29660;42.892;24.710;2023-04-26T13:46:02;95811.41;;;14.14;44.51
44001;BME280;29660;42.892;24.710;2023-04-26T13:51:26;95866.41;;;14.48;43.47
44001;BME280;29660;42.892;24.710;2023-04-26T13:56:48;95777.50;;;13.69;43.78
44001;BME280;29660;42.892;24.710;2023-04-26T14:02:10;96090.75;;;16.07;43.64
44001;BME280;29660;42.892;24.710;2023-04-26T14:07:33;96047.53;;;15.71;43.21
44001;BME280;29660;42.892;24.710;2023-04-26T14:12:55;96041.56;;;15.50;43.12
44001;BME280;29660;42.892;24.710;2023-04-26T14:18:17;95859.06;;;14.33;42.91
44001;BME280;29660;42.892;24.710;2023-04-26T14:23:39;96044.41;;;15.41;43.26
44001;BME280;29660;42.892;24.710;2023-04-26T14:29:02;96087.78;;;15.56;42.60
44001;BME280;29660;42.892;24.710;2023-04-26T14:34:25;95900.53;;;14.11;43.79
44001;BME280;29660;42.892;24.710;2023-04-26T14:39:48;96126.41;;;15.63;43.92
44001;BME280;29660;42.892;24.710;2023-04-26T14:45:11;96096.47;;;15.37;44.81
44001;BME280;29660;42.892;24.710;2023-04-26T14:50:33;95914.63;;;14.20;44.75
44001;BME280;29660;42.892;24.710;2023-04-26T14:55:56;96132.81;;;15.46;44.22
44001;BME280;29660;42.892;24.710;2023-04-26T15:01:19;95880.00;;;13.66;45.38
44001;BME280;29660;42.892;24.710;2023-04-26T15:06:41;95911.91;;;13.71;45.74
44001;BME280;29660;42.892;24.710;2023-04-26T15:12:03;95863.88;;;13.41;45.57
44001;BME280;29660;42.892;24.710;2023-04-26T15:17:27;96098.41;;;15.12;43.98
44001;BME280;29660;42.892;24.710;2023-04-26T15:22:52;95839.78;;;13.41;44.84
44001;BME280;29660;42.892;24.710;2023-04-26T15:28:14;96082.66;;;14.86;44.81
44001;BME280;29660;42.892;24.710;2023-04-26T15:33:37;96130.88;;;14.82;44.98
44001;BME280;29660;42.892;24.710;2023-04-26T15:39:00;96128.72;;;14.88;45.25
44001;BME280;29660;42.892;24.710;2023-04-26T15:44:22;95923.03;;;13.15;44.09
44001;BME280;29660;42.892;24.710;2023-04-26T15:49:44;96099.22;;;14.30;44.84
44001;BME280;29660;42.892;24.710;2023-04-26T15:55:06;96126.75;;;14.39;46.27
44001;BME280;29660;42.892;24.710;2023-04-26T16:00:28;96149.16;;;14.56;45.64
44001;BME280;29660;42.892;24.710;2023-04-26T16:05:52;96152.06;;;14.51;45.90
44001;BME280;29660;42.892;24.710;2023-04-26T16:11:14;95875.09;;;12.68;47.22
44001;BME280;29660;42.892;24.710;2023-04-26T16:16:38;96153.47;;;14.48;46.55
44001;BME280;29660;42.892;24.710;2023-04-26T16:22:00;95874.72;;;12.58;46.44
44001;BME280;29660;42.892;24.710;2023-04-26T16:27:22;95710.19;;;11.26;46.17
44001;BME280;29660;42.892;24.710;2023-04-26T16:32:44;96145.84;;;14.05;47.54
44001;BME280;29660;42.892;24.710;2023-04-26T16:38:07;95934.69;;;12.27;48.45
44001;BME280;29660;42.892;24.710;2023-04-26T16:43:30;96182.50;;;13.80;48.47
44001;BME280;29660;42.892;24.710;2023-04-26T16:48:53;96238.31;;;13.78;49.69
44001;BME280;29660;42.892;24.710;2023-04-26T16:54:16;95956.53;;;11.99;50.45
44001;BME280;29660;42.892;24.710;2023-04-26T16:59:38;95989.97;;;12.06;50.57
44001;BME280;29660;42.892;24.710;2023-04-26T17:05:00;96226.66;;;13.53;51.60
44001;BME280;29660;42.892;24.710;2023-04-26T17:10:24;96083.78;;;12.21;52.29
44001;BME280;29660;42.892;24.710;2023-04-26T17:15:46;96232.69;;;13.02;53.08
44001;BME280;29660;42.892;24.710;2023-04-26T17:21:08;96254.72;;;12.99;54.18
44001;BME280;29660;42.892;24.710;2023-04-26T17:26:31;95994.69;;;11.18;54.04
44001;BME280;29660;42.892;24.710;2023-04-26T17:31:53;96034.84;;;11.30;54.58
44001;BME280;29660;42.892;24.710;2023-04-26T17:37:15;96004.09;;;10.90;56.61
44001;BME280;29660;42.892;24.710;2023-04-26T17:42:37;96060.44;;;11.05;56.47
44001;BME280;29660;42.892;24.710;2023-04-26T17:47:59;96209.44;;;11.95;57.11
44001;BME280;29660;42.892;24.710;2023-04-26T17:53:21;96275.47;;;12.38;57.90
44001;BME280;29660;42.892;24.710;2023-04-26T17:58:43;96338.84;;;12.46;60.02
44001;BME280;29660;42.892;24.710;2023-04-26T18:04:05;96333.97;;;12.31;61.03
44001;BME280;29660;42.892;24.710;2023-04-26T18:09:27;95870.63;;;9.15;61.36
44001;BME280;29660;42.892;24.710;2023-04-26T18:14:50;96285.44;;;11.63;62.42
44001;BME280;29660;42.892;24.710;2023-04-26T18:20:12;96107.94;;;10.38;62.29
44001;BME280;29660;42.892;24.710;2023-04-26T18:25:34;96381.59;;;12.03;63.03
44001;BME280;29660;42.892;24.710;2023-04-26T18:30:57;96391.16;;;11.95;62.85
44001;BME280;29660;42.892;24.710;2023-04-26T18:36:19;96367.56;;;11.58;64.80
44001;BME280;29660;42.892;24.710;2023-04-26T18:41:41;96407.53;;;11.71;65.22
44001;BME280;29660;42.892;24.710;2023-04-26T18:47:04;96359.72;;;11.30;70.89
44001;BME280;29660;42.892;24.710;2023-04-26T18:52:26;96340.38;;;10.93;73.38
44001;BME280;29660;42.892;24.710;2023-04-26T18:57:48;96416.66;;;10.94;81.42
44001;BME280;29660;42.892;24.710;2023-04-26T19:03:10;96513.38;;;11.36;80.32
44001;BME280;29660;42.892;24.710;2023-04-26T19:08:32;96163.22;;;9.28;82.52
44001;BME280;29660;42.892;24.710;2023-04-26T19:13:54;96364.75;;;10.55;80.54
44001;BME280;29660;42.892;24.710;2023-04-26T19:19:16;96345.94;;;10.38;81.57
44001;BME280;29660;42.892;24.710;2023-04-26T19:24:38;96429.34;;;10.89;86.21
44001;BME280;29660;42.892;24.710;2023-04-26T19:30:00;96442.59;;;10.80;95.99
44001;BME280;29660;42.892;24.710;2023-04-26T19:35:23;96454.28;;;10.70;90.73
44001;BME280;29660;42.892;24.710;2023-04-26T19:40:45;96204.09;;;9.19;88.24
44001;BME280;29660;42.892;24.710;2023-04-26T19:46:13;96426.38;;;10.40;82.17
44001;BME280;29660;42.892;24.710;2023-04-26T19:51:36;96484.81;;;10.64;81.98
44001;BME280;29660;42.892;24.710;2023-04-26T19:56:58;96184.59;;;8.82;83.44
44001;BME280;29660;42.892;24.710;2023-04-26T20:02:20;96220.66;;;9.02;87.42
44001;BME280;29660;42.892;24.710;2023-04-26T20:07:42;96200.56;;;8.82;83.37
44001;BME280;29660;42.892;24.710;2023-04-26T20:13:04;96185.19;;;8.65;83.65
44001;BME280;29660;42.892;24.710;2023-04-26T20:18:26;96234.63;;;8.80;90.56
44001;BME280;29660;42.892;24.710;2023-04-26T20:23:48;96371.06;;;9.54;84.06
44001;BME280;29660;42.892;24.710;2023-04-26T20:29:10;96235.56;;;8.56;85.60
44001;BME280;29660;42.892;24.710;2023-04-26T20:34:32;96223.16;;;8.33;86.74
44001;BME280;29660;42.892;24.710;2023-04-26T20:39:54;96228.19;;;8.34;85.32
44001;BME280;29660;42.892;24.710;2023-04-26T20:45:18;96152.59;;;7.61;87.68
44001;BME280;29660;42.892;24.710;2023-04-26T20:50:40;96267.06;;;8.49;90.56
44001;BME280;29660;42.892;24.710;2023-04-26T20:56:02;96549.53;;;10.09;91.07
44001;BME280;29660;42.892;24.710;2023-04-26T21:01:24;96535.22;;;10.05;94.71
44001;BME280;29660;42.892;24.710;2023-04-26T21:06:46;96532.28;;;10.07;95.40
44001;BME280;29660;42.892;24.710;2023-04-26T21:12:08;96309.41;;;8.59;91.56
44001;BME280;29660;42.892;24.710;2023-04-26T21:17:30;96531.09;;;9.99;91.79
44001;BME280;29660;42.892;24.710;2023-04-26T21:22:53;96474.28;;;9.57;90.27
44001;BME280;29660;42.892;24.710;2023-04-26T21:28:15;96510.09;;;9.65;91.07
44001;BME280;29660;42.892;24.710;2023-04-26T21:33:37;96306.28;;;8.39;87.62
44001;BME280;29660;42.892;24.710;2023-04-26T21:38:59;96321.13;;;8.40;88.50
44001;BME280;29660;42.892;24.710;2023-04-26T21:44:21;96588.03;;;9.71;88.02
44001;BME280;29660;42.892;24.710;2023-04-26T21:49:43;96184.53;;;7.13;88.99
44001;BME280;29660;42.892;24.710;2023-04-26T21:55:05;96379.34;;;8.36;88.98
44001;BME280;29660;42.892;24.710;2023-04-26T22:00:27;96582.94;;;9.55;93.33
44001;BME280;29660;42.892;24.710;2023-04-26T22:05:49;96530.28;;;9.20;92.90
44001;BME280;29660;42.892;24.710;2023-04-26T22:11:12;96337.19;;;7.92;94.51
44001;BME280;29660;42.892;24.710;2023-04-26T22:16:34;96566.63;;;9.43;94.43
44001;BME280;29660;42.892;24.710;2023-04-26T22:21:56;96313.72;;;7.80;93.46
44001;BME280;29660;42.892;24.710;2023-04-26T22:27:18;96552.69;;;9.14;92.39
44001;BME280;29660;42.892;24.710;2023-04-26T22:32:40;96361.78;;;7.97;92.92
44001;BME280;29660;42.892;24.710;2023-04-26T22:38:02;96528.75;;;8.95;93.67
44001;BME280;29660;42.892;24.710;2023-04-26T22:43:42;96315.09;;;7.53;94.75
44001;BME280;29660;42.892;24.710;2023-04-26T22:49:05;96304.16;;;7.36;98.70
44001;BME280;29660;42.892;24.710;2023-04-26T22:54:28;96343.19;;;7.54;99.53
44001;BME280;29660;42.892;24.710;2023-04-26T22:59:49;96370.97;;;7.62;97.55
44001;BME280;29660;42.892;24.710;2023-04-26T23:05:12;96652.28;;;9.26;100.00
44001;BME280;29660;42.892;24.710;2023-04-26T23:10:34;96385.41;;;7.27;100.00
44001;BME280;29660;42.892;24.710;2023-04-26T23:15:56;96492.66;;;7.74;100.00
44001;BME280;29660;42.892;24.710;2023-04-26T23:21:18;96598.28;;;8.35;100.00
44001;BME280;29660;42.892;24.710;2023-04-26T23:26:40;96589.50;;;8.10;100.00
44001;BME280;29660;42.892;24.710;2023-04-26T23:32:02;96444.47;;;7.03;100.00
44001;BME280;29660;42.892;24.710;2023-04-26T23:37:24;96377.78;;;6.57;100.00
44001;BME280;29660;42.892;24.710;2023-04-26T23:42:46;96443.78;;;6.87;100.00
44001;BME280;29660;42.892;24.710;2023-04-26T23:48:08;96530.13;;;7.38;100.00
44001;BME280;29660;42.892;24.710;2023-04-26T23:53:31;96537.59;;;7.36;100.00
44001;BME280;29660;42.892;24.710;2023-04-26T23:58:53;96433.13;;;6.58;100.00
